sensor_id;sensor_type;location;lat;lon;timestamp;temperature;humidity
70366;DHT22;57787;48.216;12.396;2023-06-24T00:00:21;16.50;83.20
70366;DHT22;57787;48.216;12.396;2023-06-24T00:02:48;16.50;83.60
70366;DHT22;57787;48.216;12.396;2023-06-24T00:05:20;16.50;83.60
70366;DHT22;57787;48.216;12.396;2023-06-24T00:07:46;16.50;83.80
70366;DHT22;57787;48.216;12.396;2023-06-24T00:10:14;16.50;83.90
70366;DHT22;57787;48.216;12.396;2023-06-24T00:12:43;16.50;83.60
70366;DHT22;57787;48.216;12.396;2023-06-24T00:15:11;16.40;84.00
70366;DHT22;57787;48.216;12.396;2023-06-24T00:17:38;16.40;84.10
70366;DHT22;57787;48.216;12.396;2023-06-24T00:20:06;16.50;84.00
70366;DHT22;57787;48.216;12.396;2023-06-24T00:22:38;16.40;83.60
70366;DHT22;57787;48.216;12.396;2023-06-24T00:25:11;16.40;83.40
70366;DHT22;57787;48.216;12.396;2023-06-24T00:27:38;16.40;83.90
70366;DHT22;57787;48.216;12.396;2023-06-24T00:30:05;16.40;83.70
70366;DHT22;57787;48.216;12.396;2023-06-24T00:32:32;16.40;83.80
70366;DHT22;57787;48.216;12.396;2023-06-24T00:34:59;16.40;84.00
70366;DHT22;57787;48.216;12.396;2023-06-24T00:37:26;16.40;83.90
70366;DHT22;57787;48.216;12.396;2023-06-24T00:39:53;16.40;83.90
70366;DHT22;57787;48.216;12.396;2023-06-24T00:42:20;16.40;83.80
70366;DHT22;57787;48.216;12.396;2023-06-24T00:44:47;16.40;84.00
70366;DHT22;57787;48.216;12.396;2023-06-24T00:47:14;16.40;84.30
70366;DHT22;57787;48.216;12.396;2023-06-24T00:49:43;16.40;84.20
70366;DHT22;57787;48.216;12.396;2023-06-24T00:52:12;16.40;84.80
70366;DHT22;57787;48.216;12.396;2023-06-24T00:54:43;16.40;84.80
70366;DHT22;57787;48.216;12.396;2023-06-24T00:57:10;16.40;84.20
70366;DHT22;57787;48.216;12.396;2023-06-24T00:59:37;16.40;84.50
70366;DHT22;57787;48.216;12.396;2023-06-24T01:02:04;16.30;84.40
70366;DHT22;57787;48.216;12.396;2023-06-24T01:04:32;16.40;84.30
70366;DHT22;57787;48.216;12.396;2023-06-24T01:07:00;16.30;84.50
70366;DHT22;57787;48.216;12.396;2023-06-24T01:09:27;16.30;84.20
70366;DHT22;57787;48.216;12.396;2023-06-24T01:11:54;16.30;84.10
70366;DHT22;57787;48.216;12.396;2023-06-24T01:14:22;16.30;84.20
70366;DHT22;57787;48.216;12.396;2023-06-24T01:17:00;16.20;84.10
70366;DHT22;57787;48.216;12.396;2023-06-24T01:20:14;16.20;83.90
70366;DHT22;57787;48.216;12.396;2023-06-24T01:22:39;16.20;83.60
70366;DHT22;57787;48.216;12.396;2023-06-24T01:28:52;16.10;83.50
70366;DHT22;57787;48.216;12.396;2023-06-24T01:30:54;16.10;84.20
70366;DHT22;57787;48.216;12.396;2023-06-24T01:33:46;16.10;84.10
70366;DHT22;57787;48.216;12.396;2023-06-24T01:36:17;16.10;83.90
70366;DHT22;57787;48.216;12.396;2023-06-24T01:38:52;16.10;84.10
70366;DHT22;57787;48.216;12.396;2023-06-24T01:41:22;16.10;84.10
70366;DHT22;57787;48.216;12.396;2023-06-24T01:43:52;16.10;84.10
70366;DHT22;57787;48.216;12.396;2023-06-24T01:46:22;16.10;83.90
70366;DHT22;57787;48.216;12.396;2023-06-24T01:48:52;16.10;84.10
70366;DHT22;57787;48.216;12.396;2023-06-24T01:51:20;16.10;84.10
70366;DHT22;57787;48.216;12.396;2023-06-24T01:53:50;16.10;84.20
70366;DHT22;57787;48.216;12.396;2023-06-24T01:56:18;16.00;83.90
70366;DHT22;57787;48.216;12.396;2023-06-24T01:58:47;16.10;84.00
70366;DHT22;57787;48.216;12.396;2023-06-24T02:01:14;16.10;83.90
70366;DHT22;57787;48.216;12.396;2023-06-24T02:03:42;16.00;84.20
70366;DHT22;57787;48.216;12.396;2023-06-24T02:06:10;16.00;84.30
70366;DHT22;57787;48.216;12.396;2023-06-24T02:08:38;16.00;84.30
70366;DHT22;57787;48.216;12.396;2023-06-24T02:11:07;16.00;84.20
70366;DHT22;57787;48.216;12.396;2023-06-24T02:13:35;16.00;84.30
70366;DHT22;57787;48.216;12.396;2023-06-24T02:16:02;16.00;84.50
70366;DHT22;57787;48.216;12.396;2023-06-24T02:18:30;16.00;84.70
70366;DHT22;57787;48.216;12.396;2023-06-24T02:20:57;16.00;84.30
70366;DHT22;57787;48.216;12.396;2023-06-24T02:23:25;16.00;84.40
70366;DHT22;57787;48.216;12.396;2023-06-24T02:25:53;16.00;84.50
70366;DHT22;57787;48.216;12.396;2023-06-24T02:28:23;15.90;84.60
70366;DHT22;57787;48.216;12.396;2023-06-24T02:30:50;16.00;84.30
70366;DHT22;57787;48.216;12.396;2023-06-24T02:33:17;16.00;84.40
70366;DHT22;57787;48.216;12.396;2023-06-24T02:35:45;16.00;84.60
70366;DHT22;57787;48.216;12.396;2023-06-24T02:38:13;15.90;84.80
70366;DHT22;57787;48.216;12.396;2023-06-24T02:40:42;15.90;84.70
70366;DHT22;57787;48.216;12.396;2023-06-24T02:43:09;15.90;84.70
70366;DHT22;57787;48.216;12.396;2023-06-24T02:45:36;15.90;84.90
70366;DHT22;57787;48.216;12.396;2023-06-24T02:48:03;15.80;84.60
70366;DHT22;57787;48.216;12.396;2023-06-24T02:50:31;15.80;84.70
70366;DHT22;57787;48.216;12.396;2023-06-24T02:52:58;15.90;84.80
70366;DHT22;57787;48.216;12.396;2023-06-24T02:55:26;15.90;84.90
70366;DHT22;57787;48.216;12.396;2023-06-24T02:57:53;15.90;84.80
70366;DHT22;57787;48.216;12.396;2023-06-24T03:00:21;15.90;84.80
70366;DHT22;57787;48.216;12.396;2023-06-24T03:02:48;15.90;84.80
70366;DHT22;57787;48.216;12.396;2023-06-24T03:05:15;15.90;84.90
70366;DHT22;57787;48.216;12.396;2023-06-24T03:07:42;15.90;84.70
70366;DHT22;57787;48.216;12.396;2023-06-24T03:10:09;15.90;84.90
70366;DHT22;57787;48.216;12.396;2023-06-24T03:12:37;15.80;84.90
70366;DHT22;57787;48.216;12.396;2023-06-24T03:15:04;15.90;84.90
70366;DHT22;57787;48.216;12.396;2023-06-24T03:17:31;15.80;84.90
70366;DHT22;57787;48.216;12.396;2023-06-24T03:19:58;15.80;85.00
70366;DHT22;57787;48.216;12.396;2023-06-24T03:22:26;15.80;84.90
70366;DHT22;57787;48.216;12.396;2023-06-24T03:24:53;15.80;84.80
70366;DHT22;57787;48.216;12.396;2023-06-24T03:27:23;15.80;84.80
70366;DHT22;57787;48.216;12.396;2023-06-24T03:29:50;15.80;84.60
70366;DHT22;57787;48.216;12.396;2023-06-24T03:32:17;15.80;85.00
70366;DHT22;57787;48.216;12.396;2023-06-24T03:34:44;15.80;84.90
70366;DHT22;57787;48.216;12.396;2023-06-24T03:37:11;15.80;84.80
70366;DHT22;57787;48.216;12.396;2023-06-24T03:39:38;15.80;85.00
70366;DHT22;57787;48.216;12.396;2023-06-24T03:42:04;15.80;84.70
70366;DHT22;57787;48.216;12.396;2023-06-24T03:44:31;15.80;84.70
70366;DHT22;57787;48.216;12.396;2023-06-24T03:46:59;15.80;84.80
70366;DHT22;57787;48.216;12.396;2023-06-24T03:49:26;15.80;85.00
70366;DHT22;57787;48.216;12.396;2023-06-24T03:51:52;15.80;84.80
70366;DHT22;57787;48.216;12.396;2023-06-24T03:54:19;15.80;84.60
70366;DHT22;57787;48.216;12.396;2023-06-24T03:56:46;15.80;84.90
70366;DHT22;57787;48.216;12.396;2023-06-24T03:59:13;15.80;84.90
70366;DHT22;57787;48.216;12.396;2023-06-24T04:01:40;15.80;84.80
70366;DHT22;57787;48.216;12.396;2023-06-24T04:04:07;15.80;84.90
70366;DHT22;57787;48.216;12.396;2023-06-24T04:06:34;15.80;84.90
70366;DHT22;57787;48.216;12.396;2023-06-24T04:09:01;15.90;84.60
70366;DHT22;57787;48.216;12.396;2023-06-24T04:11:29;15.80;84.80
70366;DHT22;57787;48.216;12.396;2023-06-24T04:13:55;15.80;84.70
70366;DHT22;57787;48.216;12.396;2023-06-24T04:16:22;15.90;85.00
70366;DHT22;57787;48.216;12.396;2023-06-24T04:18:49;15.80;84.70
70366;DHT22;57787;48.216;12.396;2023-06-24T04:21:16;15.90;84.70
70366;DHT22;57787;48.216;12.396;2023-06-24T04:23:43;15.90;84.40
70366;DHT22;57787;48.216;12.396;2023-06-24T04:26:10;15.90;85.10
70366;DHT22;57787;48.216;12.396;2023-06-24T04:28:37;15.90;85.20
70366;DHT22;57787;48.216;12.396;2023-06-24T04:31:03;15.90;84.90
70366;DHT22;57787;48.216;12.396;2023-06-24T04:33:30;15.90;85.10
70366;DHT22;57787;48.216;12.396;2023-06-24T04:35:57;15.90;85.20
70366;DHT22;57787;48.216;12.396;2023-06-24T04:38:25;15.90;85.30
70366;DHT22;57787;48.216;12.396;2023-06-24T04:40:53;15.90;85.40
70366;DHT22;57787;48.216;12.396;2023-06-24T04:43:20;16.00;85.30
70366;DHT22;57787;48.216;12.396;2023-06-24T04:45:47;16.00;85.00
70366;DHT22;57787;48.216;12.396;2023-06-24T04:48:14;16.00;85.50
70366;DHT22;57787;48.216;12.396;2023-06-24T04:50:41;16.00;85.20
70366;DHT22;57787;48.216;12.396;2023-06-24T04:53:08;16.10;84.90
70366;DHT22;57787;48.216;12.396;2023-06-24T04:55:35;16.10;85.00
70366;DHT22;57787;48.216;12.396;2023-06-24T04:58:02;16.10;85.20
70366;DHT22;57787;48.216;12.396;2023-06-24T05:00:29;16.20;85.00
70366;DHT22;57787;48.216;12.396;2023-06-24T05:02:56;16.20;85.10
70366;DHT22;57787;48.216;12.396;2023-06-24T05:05:23;16.30;84.60
70366;DHT22;57787;48.216;12.396;2023-06-24T05:07:50;16.30;84.70
70366;DHT22;57787;48.216;12.396;2023-06-24T05:10:17;16.30;85.30
70366;DHT22;57787;48.216;12.396;2023-06-24T05:12:44;16.40;85.20
70366;DHT22;57787;48.216;12.396;2023-06-24T05:15:11;16.50;84.80
70366;DHT22;57787;48.216;12.396;2023-06-24T05:17:40;16.50;84.60
70366;DHT22;57787;48.216;12.396;2023-06-24T05:20:08;16.60;84.70
70366;DHT22;57787;48.216;12.396;2023-06-24T05:22:35;16.70;84.20
70366;DHT22;57787;48.216;12.396;2023-06-24T05:25:03;16.70;84.10
70366;DHT22;57787;48.216;12.396;2023-06-24T05:27:30;16.70;83.90
70366;DHT22;57787;48.216;12.396;2023-06-24T05:29:57;16.80;84.30
70366;DHT22;57787;48.216;12.396;2023-06-24T05:32:23;16.80;84.20
70366;DHT22;57787;48.216;12.396;2023-06-24T05:34:52;16.80;84.30
70366;DHT22;57787;48.216;12.396;2023-06-24T05:37:18;16.90;84.10
70366;DHT22;57787;48.216;12.396;2023-06-24T05:39:45;16.90;84.10
70366;DHT22;57787;48.216;12.396;2023-06-24T05:42:12;16.90;83.50
70366;DHT22;57787;48.216;12.396;2023-06-24T05:44:39;17.00;84.10
70366;DHT22;57787;48.216;12.396;2023-06-24T05:47:06;17.10;84.00
70366;DHT22;57787;48.216;12.396;2023-06-24T05:49:33;17.10;83.90
70366;DHT22;57787;48.216;12.396;2023-06-24T05:52:03;17.10;84.10
70366;DHT22;57787;48.216;12.396;2023-06-24T05:54:29;17.20;84.30
70366;DHT22;57787;48.216;12.396;2023-06-24T05:56:56;17.20;84.10
70366;DHT22;57787;48.216;12.396;2023-06-24T05:59:23;17.30;84.10
70366;DHT22;57787;48.216;12.396;2023-06-24T06:01:50;17.30;83.80
70366;DHT22;57787;48.216;12.396;2023-06-24T06:04:17;17.30;83.60
70366;DHT22;57787;48.216;12.396;2023-06-24T06:06:44;17.40;83.50
70366;DHT22;57787;48.216;12.396;2023-06-24T06:09:11;17.40;83.50
70366;DHT22;57787;48.216;12.396;2023-06-24T06:11:38;17.50;83.40
70366;DHT22;57787;48.216;12.396;2023-06-24T06:14:05;17.60;83.00
70366;DHT22;57787;48.216;12.396;2023-06-24T06:16:32;17.70;83.20
70366;DHT22;57787;48.216;12.396;2023-06-24T06:19:01;17.80;81.70
70366;DHT22;57787;48.216;12.396;2023-06-24T06:21:27;18.00;82.30
70366;DHT22;57787;48.216;12.396;2023-06-24T06:23:54;18.10;83.00
70366;DHT22;57787;48.216;12.396;2023-06-24T06:26:21;18.30;82.30
70366;DHT22;57787;48.216;12.396;2023-06-24T06:28:49;18.50;81.80
70366;DHT22;57787;48.216;12.396;2023-06-24T06:31:19;18.80;81.40
70366;DHT22;57787;48.216;12.396;2023-06-24T06:33:48;19.00;78.00
70366;DHT22;57787;48.216;12.396;2023-06-24T06:36:14;19.20;76.00
70366;DHT22;57787;48.216;12.396;2023-06-24T06:38:42;19.50;75.90
70366;DHT22;57787;48.216;12.396;2023-06-24T06:41:10;19.70;75.70
70366;DHT22;57787;48.216;12.396;2023-06-24T06:43:38;19.90;77.30
70366;DHT22;57787;48.216;12.396;2023-06-24T06:46:05;20.00;75.70
70366;DHT22;57787;48.216;12.396;2023-06-24T06:48:32;20.10;71.00
70366;DHT22;57787;48.216;12.396;2023-06-24T06:50:59;20.30;73.50
70366;DHT22;57787;48.216;12.396;2023-06-24T06:53:26;20.30;72.10
70366;DHT22;57787;48.216;12.396;2023-06-24T06:55:53;20.40;72.50
70366;DHT22;57787;48.216;12.396;2023-06-24T06:58:20;20.40;71.60
70366;DHT22;57787;48.216;12.396;2023-06-24T07:00:47;20.30;69.60
70366;DHT22;57787;48.216;12.396;2023-06-24T07:03:14;20.30;70.00
70366;DHT22;57787;48.216;12.396;2023-06-24T07:05:41;20.30;70.60
70366;DHT22;57787;48.216;12.396;2023-06-24T07:08:08;20.30;71.40
70366;DHT22;57787;48.216;12.396;2023-06-24T07:10:35;20.20;68.50
70366;DHT22;57787;48.216;12.396;2023-06-24T07:13:02;20.20;70.80
70366;DHT22;57787;48.216;12.396;2023-06-24T07:15:38;20.20;70.00
70366;DHT22;57787;48.216;12.396;2023-06-24T07:18:07;20.20;68.70
70366;DHT22;57787;48.216;12.396;2023-06-24T07:20:34;20.20;67.80
70366;DHT22;57787;48.216;12.396;2023-06-24T07:23:01;20.30;70.10
70366;DHT22;57787;48.216;12.396;2023-06-24T07:25:27;20.40;71.00
70366;DHT22;57787;48.216;12.396;2023-06-24T07:27:57;20.60;69.30
70366;DHT22;57787;48.216;12.396;2023-06-24T07:30:24;20.80;67.20
70366;DHT22;57787;48.216;12.396;2023-06-24T07:32:51;20.90;65.80
70366;DHT22;57787;48.216;12.396;2023-06-24T07:35:19;21.00;67.80
70366;DHT22;57787;48.216;12.396;2023-06-24T07:37:46;21.20;66.80
70366;DHT22;57787;48.216;12.396;2023-06-24T07:40:14;21.30;64.50
70366;DHT22;57787;48.216;12.396;2023-06-24T07:42:43;21.40;64.00
70366;DHT22;57787;48.216;12.396;2023-06-24T07:45:10;21.50;63.80
70366;DHT22;57787;48.216;12.396;2023-06-24T07:47:37;21.60;63.90
70366;DHT22;57787;48.216;12.396;2023-06-24T07:50:04;21.60;62.00
70366;DHT22;57787;48.216;12.396;2023-06-24T07:52:32;21.70;62.30
70366;DHT22;57787;48.216;12.396;2023-06-24T07:54:59;21.60;61.80
70366;DHT22;57787;48.216;12.396;2023-06-24T07:57:29;21.60;61.40
70366;DHT22;57787;48.216;12.396;2023-06-24T07:59:58;21.70;63.30
70366;DHT22;57787;48.216;12.396;2023-06-24T08:02:25;21.80;62.10
70366;DHT22;57787;48.216;12.396;2023-06-24T08:04:55;21.90;61.00
70366;DHT22;57787;48.216;12.396;2023-06-24T08:07:24;22.00;60.70
70366;DHT22;57787;48.216;12.396;2023-06-24T08:09:52;22.00;59.70
70366;DHT22;57787;48.216;12.396;2023-06-24T08:12:19;22.10;62.60
70366;DHT22;57787;48.216;12.396;2023-06-24T08:14:48;22.20;60.30
70366;DHT22;57787;48.216;12.396;2023-06-24T08:17:15;22.30;59.50
70366;DHT22;57787;48.216;12.396;2023-06-24T08:19:43;22.40;60.10
70366;DHT22;57787;48.216;12.396;2023-06-24T08:22:10;22.60;58.30
70366;DHT22;57787;48.216;12.396;2023-06-24T08:24:37;22.60;58.60
70366;DHT22;57787;48.216;12.396;2023-06-24T08:27:04;22.70;55.70
70366;DHT22;57787;48.216;12.396;2023-06-24T08:29:31;22.80;56.60
70366;DHT22;57787;48.216;12.396;2023-06-24T08:31:58;23.00;57.30
70366;DHT22;57787;48.216;12.396;2023-06-24T08:34:25;23.10;55.40
70366;DHT22;57787;48.216;12.396;2023-06-24T08:36:52;23.30;55.90
70366;DHT22;57787;48.216;12.396;2023-06-24T08:39:19;23.40;55.40
70366;DHT22;57787;48.216;12.396;2023-06-24T08:41:46;23.30;52.30
70366;DHT22;57787;48.216;12.396;2023-06-24T08:44:15;23.40;55.20
70366;DHT22;57787;48.216;12.396;2023-06-24T08:46:41;23.40;52.40
70366;DHT22;57787;48.216;12.396;2023-06-24T08:49:25;23.50;54.10
70366;DHT22;57787;48.216;12.396;2023-06-24T08:51:58;23.50;53.50
70366;DHT22;57787;48.216;12.396;2023-06-24T08:54:27;23.60;54.10
70366;DHT22;57787;48.216;12.396;2023-06-24T08:56:55;24.00;50.80
70366;DHT22;57787;48.216;12.396;2023-06-24T08:59:24;24.40;51.30
70366;DHT22;57787;48.216;12.396;2023-06-24T09:01:51;24.80;49.20
70366;DHT22;57787;48.216;12.396;2023-06-24T09:04:18;25.10;49.00
70366;DHT22;57787;48.216;12.396;2023-06-24T09:06:46;25.20;48.30
70366;DHT22;57787;48.216;12.396;2023-06-24T09:09:19;25.40;48.10
70366;DHT22;57787;48.216;12.396;2023-06-24T09:11:53;25.50;44.20
70366;DHT22;57787;48.216;12.396;2023-06-24T09:14:22;25.80;45.30
70366;DHT22;57787;48.216;12.396;2023-06-24T09:16:59;26.20;44.30
70366;DHT22;57787;48.216;12.396;2023-06-24T09:19:30;26.00;42.70
70366;DHT22;57787;48.216;12.396;2023-06-24T09:22:06;25.70;43.70
70366;DHT22;57787;48.216;12.396;2023-06-24T09:24:35;25.40;45.10
70366;DHT22;57787;48.216;12.396;2023-06-24T09:27:02;25.20;47.50
70366;DHT22;57787;48.216;12.396;2023-06-24T09:29:35;25.00;48.80
70366;DHT22;57787;48.216;12.396;2023-06-24T09:32:05;25.00;48.90
70366;DHT22;57787;48.216;12.396;2023-06-24T09:34:35;25.00;49.40
70366;DHT22;57787;48.216;12.396;2023-06-24T09:37:02;25.00;47.70
70366;DHT22;57787;48.216;12.396;2023-06-24T09:39:34;25.10;48.80
70366;DHT22;57787;48.216;12.396;2023-06-24T09:42:01;24.80;48.20
70366;DHT22;57787;48.216;12.396;2023-06-24T09:44:29;24.90;50.50
70366;DHT22;57787;48.216;12.396;2023-06-24T09:46:56;24.80;47.30
70366;DHT22;57787;48.216;12.396;2023-06-24T09:49:24;24.90;46.60
70366;DHT22;57787;48.216;12.396;2023-06-24T09:51:54;25.00;47.10
70366;DHT22;57787;48.216;12.396;2023-06-24T09:54:22;25.20;48.70
70366;DHT22;57787;48.216;12.396;2023-06-24T09:56:51;25.30;47.00
70366;DHT22;57787;48.216;12.396;2023-06-24T09:59:20;25.60;49.90
70366;DHT22;57787;48.216;12.396;2023-06-24T10:01:48;25.80;48.60
70366;DHT22;57787;48.216;12.396;2023-06-24T10:04:18;25.80;49.60
70366;DHT22;57787;48.216;12.396;2023-06-24T10:06:45;25.80;47.00
70366;DHT22;57787;48.216;12.396;2023-06-24T10:09:13;26.00;43.20
70366;DHT22;57787;48.216;12.396;2023-06-24T10:11:46;26.00;44.20
70366;DHT22;57787;48.216;12.396;2023-06-24T10:14:14;25.90;46.30
70366;DHT22;57787;48.216;12.396;2023-06-24T10:16:41;25.90;47.00
70366;DHT22;57787;48.216;12.396;2023-06-24T10:19:09;25.50;44.70
70366;DHT22;57787;48.216;12.396;2023-06-24T10:24:30;25.00;43.90
70366;DHT22;57787;48.216;12.396;2023-06-24T10:27:01;24.70;46.90
70366;DHT22;57787;48.216;12.396;2023-06-24T10:29:32;24.80;43.50
70366;DHT22;57787;48.216;12.396;2023-06-24T10:32:02;25.10;44.60
70366;DHT22;57787;48.216;12.396;2023-06-24T10:37:10;25.30;43.50
70366;DHT22;57787;48.216;12.396;2023-06-24T10:44:46;26.10;42.90
70366;DHT22;57787;48.216;12.396;2023-06-24T10:47:15;26.20;43.90
70366;DHT22;57787;48.216;12.396;2023-06-24T10:49:42;26.50;43.00
70366;DHT22;57787;48.216;12.396;2023-06-24T10:52:10;26.60;41.90
70366;DHT22;57787;48.216;12.396;2023-06-24T10:54:37;26.90;44.90
70366;DHT22;57787;48.216;12.396;2023-06-24T10:57:05;26.90;43.50
70366;DHT22;57787;48.216;12.396;2023-06-24T10:59:35;27.00;42.90
70366;DHT22;57787;48.216;12.396;2023-06-24T11:02:02;26.60;39.00
70366;DHT22;57787;48.216;12.396;2023-06-24T11:04:31;26.50;42.00
70366;DHT22;57787;48.216;12.396;2023-06-24T11:06:59;26.30;41.50
70366;DHT22;57787;48.216;12.396;2023-06-24T11:09:35;26.10;42.50
70366;DHT22;57787;48.216;12.396;2023-06-24T11:12:03;25.90;39.70
70366;DHT22;57787;48.216;12.396;2023-06-24T11:14:32;25.90;41.50
70366;DHT22;57787;48.216;12.396;2023-06-24T11:17:00;26.00;39.60
70366;DHT22;57787;48.216;12.396;2023-06-24T11:19:28;26.10;40.40
70366;DHT22;57787;48.216;12.396;2023-06-24T11:22:01;26.10;40.80
70366;DHT22;57787;48.216;12.396;2023-06-24T11:24:28;26.30;40.00
70366;DHT22;57787;48.216;12.396;2023-06-24T11:26:55;26.40;38.60
70366;DHT22;57787;48.216;12.396;2023-06-24T11:29:22;26.30;38.60
70366;DHT22;57787;48.216;12.396;2023-06-24T11:31:50;26.40;39.90
70366;DHT22;57787;48.216;12.396;2023-06-24T11:34:17;26.60;37.00
70366;DHT22;57787;48.216;12.396;2023-06-24T11:36:46;26.50;37.40
70366;DHT22;57787;48.216;12.396;2023-06-24T11:39:22;26.80;37.00
70366;DHT22;57787;48.216;12.396;2023-06-24T11:41:49;26.90;37.70
70366;DHT22;57787;48.216;12.396;2023-06-24T11:44:20;27.20;38.90
70366;DHT22;57787;48.216;12.396;2023-06-24T11:46:47;27.20;37.20
70366;DHT22;57787;48.216;12.396;2023-06-24T11:49:14;27.20;36.60
70366;DHT22;57787;48.216;12.396;2023-06-24T11:51:51;27.30;34.60
70366;DHT22;57787;48.216;12.396;2023-06-24T11:54:20;27.10;36.00
70366;DHT22;57787;48.216;12.396;2023-06-24T11:56:51;27.00;36.20
70366;DHT22;57787;48.216;12.396;2023-06-24T11:59:22;27.10;42.00
70366;DHT22;57787;48.216;12.396;2023-06-24T12:01:53;27.10;37.70
70366;DHT22;57787;48.216;12.396;2023-06-24T12:04:21;27.10;38.70
70366;DHT22;57787;48.216;12.396;2023-06-24T12:06:48;27.20;35.80
70366;DHT22;57787;48.216;12.396;2023-06-24T12:09:16;27.10;41.20
70366;DHT22;57787;48.216;12.396;2023-06-24T12:11:43;27.20;38.20
70366;DHT22;57787;48.216;12.396;2023-06-24T12:14:10;27.20;38.60
70366;DHT22;57787;48.216;12.396;2023-06-24T12:16:38;27.40;39.90
70366;DHT22;57787;48.216;12.396;2023-06-24T12:19:05;27.40;36.40
70366;DHT22;57787;48.216;12.396;2023-06-24T12:21:32;27.30;38.70
70366;DHT22;57787;48.216;12.396;2023-06-24T12:23:59;27.40;37.60
70366;DHT22;57787;48.216;12.396;2023-06-24T12:26:27;27.10;37.20
70366;DHT22;57787;48.216;12.396;2023-06-24T12:28:54;26.90;38.00
70366;DHT22;57787;48.216;12.396;2023-06-24T12:31:21;27.00;42.30
70366;DHT22;57787;48.216;12.396;2023-06-24T12:33:48;26.80;36.60
70366;DHT22;57787;48.216;12.396;2023-06-24T12:36:17;26.90;38.50
70366;DHT22;57787;48.216;12.396;2023-06-24T12:38:45;27.00;38.40
70366;DHT22;57787;48.216;12.396;2023-06-24T12:41:19;27.20;39.60
70366;DHT22;57787;48.216;12.396;2023-06-24T12:43:46;27.30;39.40
70366;DHT22;57787;48.216;12.396;2023-06-24T12:46:13;27.30;37.40
70366;DHT22;57787;48.216;12.396;2023-06-24T12:48:40;27.10;37.90
70366;DHT22;57787;48.216;12.396;2023-06-24T12:51:07;26.80;39.80
70366;DHT22;57787;48.216;12.396;2023-06-24T12:53:35;26.80;39.20
70366;DHT22;57787;48.216;12.396;2023-06-24T12:56:02;26.90;38.80
70366;DHT22;57787;48.216;12.396;2023-06-24T12:58:29;27.00;40.30
70366;DHT22;57787;48.216;12.396;2023-06-24T13:00:59;27.00;40.50
70366;DHT22;57787;48.216;12.396;2023-06-24T13:03:27;27.10;39.00
70366;DHT22;57787;48.216;12.396;2023-06-24T13:05:53;27.00;38.10
70366;DHT22;57787;48.216;12.396;2023-06-24T13:08:23;27.20;38.30
70366;DHT22;57787;48.216;12.396;2023-06-24T13:10:50;27.30;38.00
70366;DHT22;57787;48.216;12.396;2023-06-24T13:13:21;27.30;40.40
70366;DHT22;57787;48.216;12.396;2023-06-24T13:15:48;27.20;35.70
70366;DHT22;57787;48.216;12.396;2023-06-24T13:18:16;27.30;38.80
70366;DHT22;57787;48.216;12.396;2023-06-24T13:20:45;27.40;38.30
70366;DHT22;57787;48.216;12.396;2023-06-24T13:23:13;27.40;36.30
70366;DHT22;57787;48.216;12.396;2023-06-24T13:25:40;27.20;35.00
70366;DHT22;57787;48.216;12.396;2023-06-24T13:28:07;27.00;34.70
70366;DHT22;57787;48.216;12.396;2023-06-24T13:30:34;26.70;39.60
70366;DHT22;57787;48.216;12.396;2023-06-24T13:33:02;26.80;38.70
70366;DHT22;57787;48.216;12.396;2023-06-24T13:35:29;26.90;37.30
70366;DHT22;57787;48.216;12.396;2023-06-24T13:37:56;27.00;37.00
70366;DHT22;57787;48.216;12.396;2023-06-24T13:40:25;27.10;36.50
70366;DHT22;57787;48.216;12.396;2023-06-24T13:42:54;27.20;34.90
70366;DHT22;57787;48.216;12.396;2023-06-24T13:45:26;27.30;38.00
70366;DHT22;57787;48.216;12.396;2023-06-24T13:47:53;27.40;36.70
70366;DHT22;57787;48.216;12.396;2023-06-24T13:50:24;27.40;33.20
70366;DHT22;57787;48.216;12.396;2023-06-24T13:52:53;27.20;34.00
70366;DHT22;57787;48.216;12.396;2023-06-24T13:55:19;27.10;35.60
70366;DHT22;57787;48.216;12.396;2023-06-24T13:57:47;27.20;37.60
70366;DHT22;57787;48.216;12.396;2023-06-24T14:00:14;27.00;34.60
70366;DHT22;57787;48.216;12.396;2023-06-24T14:02:43;27.00;33.90
70366;DHT22;57787;48.216;12.396;2023-06-24T14:05:10;26.90;34.10
70366;DHT22;57787;48.216;12.396;2023-06-24T14:07:39;26.80;34.70
70366;DHT22;57787;48.216;12.396;2023-06-24T14:10:07;26.70;34.70
70366;DHT22;57787;48.216;12.396;2023-06-24T14:12:35;26.70;37.70
70366;DHT22;57787;48.216;12.396;2023-06-24T14:15:03;26.90;39.90
70366;DHT22;57787;48.216;12.396;2023-06-24T14:17:30;26.80;37.70
70366;DHT22;57787;48.216;12.396;2023-06-24T14:19:57;27.00;37.60
70366;DHT22;57787;48.216;12.396;2023-06-24T14:22:25;27.20;40.70
70366;DHT22;57787;48.216;12.396;2023-06-24T14:24:52;27.30;36.60
70366;DHT22;57787;48.216;12.396;2023-06-24T14:27:19;27.30;36.30
70366;DHT22;57787;48.216;12.396;2023-06-24T14:29:47;27.30;36.10
70366;DHT22;57787;48.216;12.396;2023-06-24T14:32:13;27.30;37.60
70366;DHT22;57787;48.216;12.396;2023-06-24T14:34:40;27.30;37.70
70366;DHT22;57787;48.216;12.396;2023-06-24T14:37:07;27.30;36.10
70366;DHT22;57787;48.216;12.396;2023-06-24T14:39:35;27.40;36.40
70366;DHT22;57787;48.216;12.396;2023-06-24T14:42:02;27.60;35.70
70366;DHT22;57787;48.216;12.396;2023-06-24T14:44:29;27.70;36.40
70366;DHT22;57787;48.216;12.396;2023-06-24T14:46:58;27.80;37.30
70366;DHT22;57787;48.216;12.396;2023-06-24T14:49:25;28.00;38.70
70366;DHT22;57787;48.216;12.396;2023-06-24T14:51:52;28.00;36.40
70366;DHT22;57787;48.216;12.396;2023-06-24T14:54:19;28.00;37.40
70366;DHT22;57787;48.216;12.396;2023-06-24T14:56:46;27.80;34.50
70366;DHT22;57787;48.216;12.396;2023-06-24T14:59:16;27.70;34.20
70366;DHT22;57787;48.216;12.396;2023-06-24T15:01:43;27.60;33.90
70366;DHT22;57787;48.216;12.396;2023-06-24T15:04:12;27.50;36.90
70366;DHT22;57787;48.216;12.396;2023-06-24T15:06:39;27.50;37.60
70366;DHT22;57787;48.216;12.396;2023-06-24T15:09:06;27.50;36.20
70366;DHT22;57787;48.216;12.396;2023-06-24T15:11:33;27.50;38.70
70366;DHT22;57787;48.216;12.396;2023-06-24T15:14:00;27.50;37.80
70366;DHT22;57787;48.216;12.396;2023-06-24T15:16:27;27.40;35.80
70366;DHT22;57787;48.216;12.396;2023-06-24T15:18:53;27.40;37.00
70366;DHT22;57787;48.216;12.396;2023-06-24T15:21:21;27.30;37.90
70366;DHT22;57787;48.216;12.396;2023-06-24T15:24:03;27.30;37.20
70366;DHT22;57787;48.216;12.396;2023-06-24T15:26:30;27.30;37.60
70366;DHT22;57787;48.216;12.396;2023-06-24T15:28:58;27.40;37.80
70366;DHT22;57787;48.216;12.396;2023-06-24T15:31:25;27.40;38.90
70366;DHT22;57787;48.216;12.396;2023-06-24T15:33:52;27.40;37.70